Little Sandy, Kentucky
Current Conditions -  °F | °C
As of 1:50 AM on Monday 24 Nov 2014 (Local Time) from KSYM Reporting Station
Overcast Overcast  
Wind Chill: 61°   Ceiling: 2200
Heat Index: 61°   Visibility: 10mi
Dew Point: 55°   Wind: 21mph
Humidity: 82%   Direction: 210°SSW
Pressure: 29.45"   Gusts: 30mph
Location:  38.1397°N, 83.158°W
Report Text: KSYM 240650Z AUTO 21018G26KT 10SM BKN022 OVC027 16/13 A2945 RMK AO2
Loading
Personal Weather Stations






























Interactive Weather Map New forecast layout! Learn more

10-Day Weather Forecast

Advertisements
Track Severe Weather on mobile